Time;durP1;ratioP1;P1;durP2;ratioP2;P2;SDS_P1;SDS_P2;PMS_P1;PMS_P2;Temp;Humidity;BMP_temperature;BMP_pressure;BME280_temperature;BME280_humidity;BME280_pressure;Samples;Min_cycle;Max_cycle;Signal;HPM_P1;HPM_P2
2023/08/12 00:00:15;;;;;;;4.15;2.65;;;19.50;99.90;;;;;;4845049;29;20048;-95
2023/08/12 00:03:02;;;;;;;4.03;2.75;;;19.50;99.90;;;;;;4832987;29;20053;-96
2023/08/12 00:05:31;;;;;;;3.97;2.50;;;19.50;99.90;;;;;;4842575;29;20057;-96
2023/08/12 00:08:22;;;;;;;4.13;2.63;;;19.40;99.90;;;;;;4829791;29;20057;-96
2023/08/12 00:10:54;;;;;;;7.15;3.40;;;19.20;99.90;;;;;;4825080;29;20057;-96
2023/08/12 00:13:28;;;;;;;4.88;2.63;;;19.40;99.90;;;;;;4830269;29;20117;-96
2023/08/12 00:16:05;;;;;;;5.40;2.85;;;19.50;99.90;;;;;;4829779;29;20136;-95
2023/08/12 00:18:59;;;;;;;;;;;;;;;;;;;;;
2023/08/12 00:21:26;;;;;;;7.22;2.88;;;19.30;99.90;;;;;;4854470;29;20521;-96
2023/08/12 00:23:59;;;;;;;4.78;2.70;;;19.30;99.90;;;;;;4843983;29;20045;-96
2023/08/12 00:27:01;;;;;;;4.47;2.80;;;19.20;99.90;;;;;;4851685;29;20060;-95
2023/08/12 00:29:27;;;;;;;3.50;2.33;;;19.30;99.90;;;;;;4853762;29;20041;-96
2023/08/12 00:32:08;;;;;;;4.88;2.60;;;19.30;99.90;;;;;;4846776;29;20056;-96
2023/08/12 00:34:42;;;;;;;5.05;2.67;;;19.30;99.90;;;;;;4860307;29;20098;-96
2023/08/12 00:37:25;;;;;;;4.75;2.92;;;19.20;99.90;;;;;;4861260;29;20449;-95
2023/08/12 00:39:56;;;;;;;3.40;2.15;;;19.20;99.90;;;;;;4830479;29;20105;-96
2023/08/12 00:42:37;;;;;;;4.35;2.53;;;19.10;99.90;;;;;;4862924;29;20045;-96
2023/08/12 00:45:17;;;;;;;3.55;2.13;;;19.10;99.90;;;;;;4821483;29;20041;-95
2023/08/12 00:47:58;;;;;;;;;;;19.10;99.90;;;;;;4858594;29;20054;-96
2023/08/12 00:50:43;;;;;;;3.53;2.17;;;;;;;;;;4837040;29;19966;-96
2023/08/12 00:53:17;;;;;;;3.53;1.80;;;19.10;99.90;;;;;;4856982;29;20047;-96
2023/08/12 00:55:49;;;;;;;3.38;1.90;;;19.20;99.90;;;;;;4828008;29;20497;-95
2023/08/12 00:58:26;;;;;;;2.33;1.70;;;19.30;99.90;;;;;;4858380;29;20045;-96
2023/08/12 01:01:04;;;;;;;4.07;1.98;;;19.10;99.90;;;;;;4846284;29;20045;-96
2023/08/12 01:03:38;;;;;;;2.83;1.77;;;19.10;99.90;;;;;;4846663;29;20124;-96
2023/08/12 01:06:15;;;;;;;4.18;2.03;;;19.30;99.90;;;;;;4849065;29;20057;-96
2023/08/12 01:08:48;;;;;;;3.05;1.92;;;19.10;99.90;;;;;;4830883;29;20136;-96
2023/08/12 01:11:46;;;;;;;5.07;1.90;;;19.10;99.90;;;;;;4845692;29;20052;-96
2023/08/12 01:14:58;;;;;;;3.70;2.08;;;19.20;99.90;;;;;;4848491;29;20398;-96
2023/08/12 01:17:29;;;;;;;3.70;2.05;;;19.10;99.90;;;;;;4848348;29;20056;-96
2023/08/12 01:20:13;;;;;;;2.75;1.38;;;19.20;99.90;;;;;;4835625;29;20053;-96
2023/08/12 01:22:50;;;;;;;3.50;1.80;;;19.10;99.90;;;;;;4862878;29;20056;-96
2023/08/12 01:25:24;;;;;;;3.45;1.88;;;19.20;99.90;;;;;;4838597;29;20037;-96
2023/08/12 01:27:56;;;;;;;3.85;2.05;;;19.10;99.90;;;;;;4820093;29;20053;-96
2023/08/12 01:30:25;;;;;;;3.33;2.00;;;19.00;99.90;;;;;;4864515;29;20057;-96
2023/08/12 01:33:21;;;;;;;2.92;1.92;;;19.00;99.90;;;;;;4843348;29;20037;-96
2023/08/12 01:36:00;;;;;;;3.45;1.95;;;19.00;99.90;;;;;;4857297;29;20117;-96
2023/08/12 01:38:40;;;;;;;4.40;1.63;;;19.00;99.90;;;;;;4848453;29;20429;-96
2023/08/12 01:41:21;;;;;;;3.05;1.88;;;19.00;99.90;;;;;;4836629;29;20159;-96
2023/08/12 01:43:57;;;;;;;3.72;1.73;;;18.90;99.90;;;;;;4847225;29;20140;-95
2023/08/12 01:46:46;;;;;;;2.90;1.85;;;18.90;99.90;;;;;;4836041;29;20045;-96
2023/08/12 01:49:20;;;;;;;3.97;1.80;;;18.90;99.90;;;;;;4853299;29;20049;-96
2023/08/12 01:51:48;;;;;;;3.72;1.92;;;18.80;99.90;;;;;;4819452;29;20473;-95
2023/08/12 01:54:24;;;;;;;3.28;1.95;;;18.80;99.90;;;;;;4861440;29;20045;-95
2023/08/12 01:56:55;;;;;;;4.25;2.13;;;18.80;99.90;;;;;;4828479;29;20076;-95
2023/08/12 01:59:29;;;;;;;2.53;2.00;;;18.80;99.90;;;;;;4846283;29;20124;-95
2023/08/12 02:02:08;;;;;;;3.97;2.03;;;18.70;99.90;;;;;;4833559;29;20051;-95
2023/08/12 02:04:43;;;;;;;3.17;2.30;;;18.70;99.90;;;;;;4827931;29;20041;-95
2023/08/12 02:07:13;;;;;;;3.97;2.00;;;18.50;99.90;;;;;;4850665;29;20041;-95
2023/08/12 02:10:02;;;;;;;;;;;;;;;;;;;;;
2023/08/12 02:12:37;;;;;;;3.33;1.83;;;18.60;99.90;;;;;;4851369;29;20439;-96
2023/08/12 02:15:24;;;;;;;4.15;2.33;;;18.70;99.90;;;;;;4821190;29;20128;-95
2023/08/12 02:18:02;;;;;;;3.40;2.17;;;18.70;99.90;;;;;;4851851;29;20033;-95
2023/08/12 02:20:33;;;;;;;3.42;2.35;;;18.70;99.90;;;;;;4832775;29;20060;-96
2023/08/12 02:23:05;;;;;;;3.58;2.35;;;18.60;99.90;;;;;;4852796;29;20065;-95
2023/08/12 02:25:50;;;;;;;2.45;2.00;;;18.60;99.90;;;;;;4840861;29;20057;-95
2023/08/12 02:28:27;;;;;;;3.55;1.90;;;18.60;99.90;;;;;;4836222;29;20056;-96
2023/08/12 02:30:53;;;;;;;4.15;2.33;;;18.60;99.90;;;;;;4847933;29;20461;-95
2023/08/12 02:33:19;;;;;;;4.68;2.47;;;18.60;99.90;;;;;;4847007;29;20154;-95
2023/08/12 02:35:53;;;;;;;3.33;2.22;;;18.60;99.90;;;;;;4863966;29;20037;-96
2023/08/12 02:38:19;;;;;;;4.32;2.22;;;18.60;99.90;;;;;;4834609;29;20049;-95
2023/08/12 02:40:52;;;;;;;3.10;2.30;;;18.50;99.90;;;;;;4845301;29;20040;-96
2023/08/12 02:43:21;;;;;;;3.97;2.60;;;18.50;99.90;;;;;;4847527;29;20174;-95
2023/08/12 02:45:57;;;;;;;3.20;2.20;;;18.50;99.90;;;;;;4847607;29;20045;-95
2023/08/12 02:48:28;;;;;;;4.35;2.75;;;18.50;99.90;;;;;;4834841;29;20065;-95
2023/08/12 02:50:57;;;;;;;2.67;2.05;;;19.00;99.90;;;;;;4837229;29;20051;-96
2023/08/12 02:53:33;;;;;;;3.70;2.10;;;18.40;99.90;;;;;;4847189;29;20047;-96
2023/08/12 02:55:59;;;;;;;3.55;2.30;;;18.50;99.90;;;;;;4846292;29;20057;-96
2023/08/12 02:58:37;;;;;;;4.90;2.55;;;18.50;99.90;;;;;;4842966;29;20041;-96
2023/08/12 03:01:11;;;;;;;3.63;2.65;;;18.50;99.90;;;;;;4847420;29;20135;-96
2023/08/12 03:04:13;;;;;;;3.97;3.05;;;18.50;99.90;;;;;;4848157;29;20393;-96
2023/08/12 03:06:39;;;;;;;4.47;3.00;;;18.50;99.90;;;;;;4844375;29;20048;-95
2023/08/12 03:09:20;;;;;;;6.38;2.90;;;18.20;99.90;;;;;;4841550;29;20151;-95
2023/08/12 03:11:51;;;;;;;4.32;2.65;;;18.60;99.90;;;;;;4846679;29;20049;-95
2023/08/12 03:14:18;;;;;;;4.70;2.80;;;18.20;99.90;;;;;;4847631;29;20401;-96
2023/08/12 03:16:52;;;;;;;4.57;2.90;;;18.60;99.90;;;;;;4863227;29;20793;-96
2023/08/12 03:19:20;;;;;;;3.38;2.50;;;18.50;99.90;;;;;;4846351;29;20053;-96
2023/08/12 03:21:48;;;;;;;3.85;3.13;;;18.40;99.90;;;;;;4845380;29;20125;-96
2023/08/12 03:24:23;;;;;;;4.32;3.00;;;18.50;99.90;;;;;;4845120;29;20049;-96
2023/08/12 03:26:58;;;;;;;4.05;2.75;;;18.50;99.90;;;;;;4833608;29;20051;-96
2023/08/12 03:29:26;;;;;;;4.97;2.75;;;18.50;99.90;;;;;;4845996;29;20044;-96
2023/08/12 03:31:57;;;;;;;3.95;3.30;;;18.40;99.90;;;;;;4863372;29;20147;-96
2023/08/12 03:34:30;;;;;;;4.47;2.92;;;18.40;99.90;;;;;;4831583;29;20049;-96
2023/08/12 03:36:59;;;;;;;4.65;3.50;;;18.30;99.90;;;;;;4847570;29;20056;-96
2023/08/12 03:39:39;;;;;;;3.25;2.65;;;18.40;99.90;;;;;;4835701;29;20045;-96
2023/08/12 03:42:10;;;;;;;4.55;3.03;;;18.40;99.90;;;;;;4846482;29;20048;-96
2023/08/12 03:44:42;;;;;;;4.63;3.47;;;18.40;99.90;;;;;;4862708;29;20501;-96
2023/08/12 03:47:24;;;;;;;5.18;3.28;;;18.40;99.90;;;;;;4862980;29;20713;-96
2023/08/12 03:49:53;;;;;;;5.63;3.72;;;18.40;99.90;;;;;;4831780;29;20052;-95
2023/08/12 03:52:24;;;;;;;4.97;3.38;;;18.40;99.90;;;;;;4851046;29;20051;-96
2023/08/12 03:54:53;;;;;;;4.15;3.17;;;18.50;99.90;;;;;;4851700;29;20196;-96
2023/08/12 03:57:26;;;;;;;7.43;3.53;;;18.10;99.90;;;;;;4846674;29;20056;-95
2023/08/12 03:59:55;;;;;;;5.18;2.97;;;18.20;99.90;;;;;;4827196;29;20565;-95
2023/08/12 04:02:23;;;;;;;5.85;3.60;;;18.40;99.90;;;;;;4837852;29;20053;-96
2023/08/12 04:04:52;;;;;;;5.40;3.63;;;18.50;99.90;;;;;;4827578;29;20044;-96
2023/08/12 04:07:21;;;;;;;6.40;4.00;;;18.40;99.90;;;;;;4842123;29;20064;-95
2023/08/12 04:09:52;;;;;;;4.80;3.95;;;18.40;99.90;;;;;;4858860;29;20053;-96
2023/08/12 04:12:21;;;;;;;5.30;3.90;;;18.40;99.90;;;;;;4834016;29;20114;-95
2023/08/12 04:14:55;;;;;;;6.97;4.00;;;18.60;99.90;;;;;;4858198;29;20049;-95
2023/08/12 04:17:21;;;;;;;4.28;3.60;;;18.40;99.90;;;;;;4835538;29;20072;-95
2023/08/12 04:19:50;;;;;;;4.90;3.55;;;18.40;99.90;;;;;;4855240;29;20465;-95
2023/08/12 04:22:19;;;;;;;5.40;3.70;;;18.40;99.90;;;;;;4845870;29;20098;-96
2023/08/12 04:24:45;;;;;;;5.43;3.83;;;18.40;99.90;;;;;;4833891;29;20477;-96
2023/08/12 04:27:17;;;;;;;6.05;4.18;;;18.40;99.90;;;;;;4850722;29;20084;-96
2023/08/12 04:29:45;;;;;;;5.28;3.83;;;18.40;99.90;;;;;;4846229;29;20041;-96
2023/08/12 04:32:17;;;;;;;5.07;4.25;;;18.50;99.90;;;;;;4847601;29;20072;-95
2023/08/12 04:34:54;;;;;;;4.82;3.80;;;18.30;99.90;;;;;;4845536;29;20033;-96
2023/08/12 04:37:25;;;;;;;6.72;3.78;;;18.60;99.90;;;;;;4848839;29;20113;-96
2023/08/12 04:39:54;;;;;;;6.65;4.10;;;18.60;99.90;;;;;;4823470;29;20052;-96
2023/08/12 04:42:33;;;;;;;4.68;4.25;;;18.60;99.90;;;;;;4852511;29;20123;-96
2023/08/12 04:45:17;;;;;;;5.95;3.70;;;18.70;99.90;;;;;;4851951;29;20041;-96
2023/08/12 04:47:43;;;;;;;7.07;4.30;;;18.60;99.90;;;;;;4834453;29;20045;-96
2023/08/12 04:50:12;;;;;;;5.47;4.80;;;18.70;99.90;;;;;;4837715;29;20132;-95
2023/08/12 04:52:46;;;;;;;5.30;4.68;;;18.40;99.90;;;;;;4849912;29;20048;-95
2023/08/12 04:55:19;;;;;;;7.32;4.50;;;18.70;99.90;;;;;;4864443;29;20077;-96
2023/08/12 04:57:48;;;;;;;6.15;4.72;;;18.80;99.90;;;;;;4849842;29;20064;-96
2023/08/12 05:00:17;;;;;;;6.20;4.80;;;18.80;99.90;;;;;;4850245;29;20057;-96
2023/08/12 05:02:51;;;;;;;6.75;4.90;;;18.80;99.90;;;;;;4849466;29;20057;-96
2023/08/12 05:05:21;;;;;;;8.05;5.18;;;18.90;99.90;;;;;;4826585;29;20064;-96
2023/08/12 05:07:56;;;;;;;7.28;4.10;;;18.80;99.90;;;;;;4846432;29;20050;-96
2023/08/12 05:10:28;;;;;;;6.95;4.10;;;19.10;99.90;;;;;;4842494;29;20045;-96
2023/08/12 05:12:55;;;;;;;6.82;4.70;;;18.90;99.90;;;;;;4849149;29;20041;-95
2023/08/12 05:15:23;;;;;;;5.75;4.40;;;18.90;99.90;;;;;;4845920;29;20817;-96
2023/08/12 05:17:57;;;;;;;6.55;4.63;;;18.90;99.90;;;;;;4845509;29;20040;-96
2023/08/12 05:20:35;;;;;;;5.68;4.75;;;19.00;99.90;;;;;;4832531;29;20057;-96
2023/08/12 05:23:03;;;;;;;7.57;4.50;;;19.00;99.90;;;;;;4837446;29;20044;-96
2023/08/12 05:25:47;;;;;;;6.78;4.40;;;19.00;99.90;;;;;;4829480;29;20078;-96
2023/08/12 05:28:13;;;;;;;6.07;4.65;;;19.00;99.90;;;;;;4865035;29;20068;-96
2023/08/12 05:30:45;;;;;;;7.20;5.00;;;19.10;99.90;;;;;;4855848;29;20041;-95
2023/08/12 05:33:14;;;;;;;6.60;4.70;;;19.10;99.90;;;;;;4849800;29;20813;-96
2023/08/12 05:35:43;;;;;;;6.10;4.80;;;19.20;99.90;;;;;;4848697;29;20041;-95
2023/08/12 05:38:19;;;;;;;6.80;4.50;;;19.30;99.90;;;;;;4858201;29;20037;-95
2023/08/12 05:40:53;;;;;;;6.30;4.88;;;19.40;99.90;;;;;;4861970;29;20127;-95
2023/08/12 05:43:27;;;;;;;5.75;4.32;;;19.50;99.90;;;;;;4844859;29;20057;-96
2023/08/12 05:46:05;;;;;;;6.32;4.43;;;19.50;99.90;;;;;;4842611;29;20092;-95
2023/08/12 05:48:34;;;;;;;5.50;4.07;;;19.60;99.90;;;;;;4849441;29;20508;-96
2023/08/12 05:51:22;;;;;;;6.22;4.70;;;19.60;99.90;;;;;;4857170;29;20048;-95
2023/08/12 05:53:51;;;;;;;7.47;4.50;;;19.90;99.90;;;;;;4842320;29;20520;-95
2023/08/12 05:56:33;;;;;;;6.07;4.85;;;19.70;99.90;;;;;;4836397;29;20068;-96
2023/08/12 05:59:10;;;;;;;6.82;4.63;;;19.80;99.90;;;;;;4846239;29;20136;-96
2023/08/12 06:01:52;;;;;;;6.68;4.65;;;19.80;99.90;;;;;;4838098;29;20053;-96
2023/08/12 06:04:30;;;;;;;8.23;4.63;;;19.80;99.90;;;;;;4843504;29;20108;-95
2023/08/12 06:07:18;;;;;;;5.72;4.88;;;19.30;99.90;;;;;;4848111;29;20055;-96
2023/08/12 06:09:55;;;;;;;6.70;4.47;;;19.90;99.90;;;;;;4856709;29;20052;-96
2023/08/12 06:12:42;;;;;;;6.93;4.43;;;19.90;99.90;;;;;;4850384;29;20053;-96
2023/08/12 06:15:58;;;;;;;;;;;;;;;;;;;;;
2023/08/12 06:18:35;;;;;;;7.68;4.30;;;20.10;99.90;;;;;;4820135;29;20050;-96
2023/08/12 06:21:16;;;;;;;8.02;4.15;;;20.10;99.90;;;;;;4820041;29;20582;-96
2023/08/12 06:23:42;;;;;;;6.07;4.43;;;20.10;99.90;;;;;;4827565;29;20049;-96
2023/08/12 06:26:11;;;;;;;9.13;4.85;;;20.20;99.90;;;;;;4811167;29;20050;-95
2023/08/12 06:28:37;;;;;;;6.38;4.57;;;20.30;99.90;;;;;;4812644;29;20133;-95
2023/08/12 06:31:09;;;;;;;6.00;4.13;;;20.30;99.90;;;;;;4810903;29;20077;-96
2023/08/12 06:33:52;;;;;;;6.80;4.45;;;20.30;99.90;;;;;;4827389;29;20129;-95
2023/08/12 06:36:37;;;;;;;;;;;;;;;;;;;;;
2023/08/12 06:40:17;;;;;;;6.68;4.43;;;20.40;99.90;;;;;;4833986;29;20050;-96
2023/08/12 06:44:05;;;;;;;;;;;;;;;;;;;;;
2023/08/12 06:54:51;;;;;;;7.57;4.00;;;20.70;99.90;;;;;;4816873;29;20064;-96
2023/08/12 06:57:17;;;;;;;7.85;4.57;;;20.40;99.90;;;;;;4808452;29;20609;-95
2023/08/12 06:59:46;;;;;;;5.68;4.00;;;20.50;99.90;;;;;;4807327;29;20053;-93
2023/08/12 07:02:12;;;;;;;6.32;4.15;;;20.60;99.90;;;;;;4820188;29;20123;-93
2023/08/12 07:04:38;;;;;;;7.70;4.40;;;20.60;99.90;;;;;;4844328;29;20045;-94
2023/08/12 07:07:04;;;;;;;6.43;4.07;;;20.60;99.90;;;;;;4826438;29;20053;-91
2023/08/12 07:09:29;;;;;;;5.82;4.20;;;20.60;99.90;;;;;;4799133;29;20553;-92
2023/08/12 07:11:55;;;;;;;6.30;4.60;;;20.60;99.90;;;;;;4825600;29;20132;-92
2023/08/12 07:14:21;;;;;;;6.45;4.32;;;20.60;99.90;;;;;;4811798;29;20042;-92
2023/08/12 07:16:46;;;;;;;6.65;4.55;;;20.60;99.90;;;;;;4810569;29;20458;-92
2023/08/12 07:19:27;;;;;;;7.72;4.75;;;20.60;99.90;;;;;;4809010;29;20069;-92
2023/08/12 07:22:00;;;;;;;5.13;4.30;;;20.60;99.90;;;;;;4842398;29;20064;-92
2023/08/12 07:28:29;;;;;;;6.43;4.38;;;20.60;99.90;;;;;;4841954;29;20138;-87
2023/08/12 07:31:38;;;;;;;7.32;4.28;;;20.60;99.90;;;;;;4828529;29;20088;-96
2023/08/12 07:34:14;;;;;;;5.93;4.55;;;20.60;99.90;;;;;;4856150;29;20124;-95
2023/08/12 07:37:31;;;;;;;6.85;4.63;;;20.60;99.90;;;;;;4806438;29;20046;-96
2023/08/12 07:39:57;;;;;;;7.15;4.43;;;20.60;99.90;;;;;;4848764;24;20060;-90
2023/08/12 07:42:23;;;;;;;6.13;4.93;;;20.60;99.90;;;;;;4825081;29;20517;-87
2023/08/12 07:44:48;;;;;;;7.55;4.95;;;20.70;99.90;;;;;;4813337;29;20076;-85
2023/08/12 07:47:15;;;;;;;8.60;5.10;;;20.70;99.90;;;;;;4826412;29;20085;-89
2023/08/12 07:49:42;;;;;;;6.82;5.40;;;20.80;99.90;;;;;;4798789;29;20088;-89
2023/08/12 07:52:08;;;;;;;6.95;4.90;;;20.80;99.90;;;;;;4813569;29;20041;-84
2023/08/12 07:54:33;;;;;;;6.35;4.78;;;20.80;99.90;;;;;;4842214;29;20049;-93
2023/08/12 07:57:00;;;;;;;6.70;4.93;;;20.80;99.90;;;;;;4808996;29;20482;-92
2023/08/12 07:59:26;;;;;;;7.50;5.88;;;20.80;99.90;;;;;;4832769;29;20033;-82
2023/08/12 08:01:52;;;;;;;7.35;4.88;;;20.80;99.90;;;;;;4829283;29;20060;-86
2023/08/12 08:04:18;;;;;;;5.93;5.25;;;20.80;99.90;;;;;;4824101;29;20489;-85
2023/08/12 08:06:43;;;;;;;8.63;5.38;;;20.90;99.90;;;;;;4822351;29;20370;-91
2023/08/12 08:09:10;;;;;;;8.27;5.90;;;20.90;99.90;;;;;;4842593;29;20053;-86
2023/08/12 08:11:36;;;;;;;8.88;5.68;;;20.90;99.90;;;;;;4827105;29;20046;-85
2023/08/12 08:14:02;;;;;;;8.65;5.97;;;20.90;99.90;;;;;;4843329;29;20045;-87
2023/08/12 08:16:28;;;;;;;7.80;5.57;;;21.00;99.90;;;;;;4827374;29;20079;-87
2023/08/12 08:18:53;;;;;;;7.25;5.03;;;21.00;99.90;;;;;;4832495;29;20049;-89
2023/08/12 08:21:19;;;;;;;8.68;5.72;;;21.00;99.90;;;;;;4831490;29;20128;-85
2023/08/12 08:23:45;;;;;;;8.95;5.80;;;21.00;99.90;;;;;;4813369;29;20497;-85
2023/08/12 08:26:13;;;;;;;7.67;5.77;;;20.90;99.90;;;;;;4813475;29;20060;-86
2023/08/12 08:28:39;;;;;;;8.13;5.93;;;21.00;99.90;;;;;;4845114;29;20049;-86
2023/08/12 08:31:05;;;;;;;7.57;6.38;;;20.90;99.90;;;;;;4828101;29;20050;-84
2023/08/12 08:33:31;;;;;;;8.43;5.80;;;20.90;99.90;;;;;;4831623;29;20045;-83
2023/08/12 08:35:56;;;;;;;9.32;6.35;;;20.90;99.90;;;;;;4813645;29;20076;-84
2023/08/12 08:38:22;;;;;;;8.25;5.80;;;20.90;99.90;;;;;;4812653;29;20110;-85
2023/08/12 08:40:50;;;;;;;7.25;5.68;;;20.90;99.90;;;;;;4812443;29;20090;-92
2023/08/12 08:43:21;;;;;;;9.00;6.40;;;21.00;99.90;;;;;;4828188;29;20085;-87
2023/08/12 08:45:48;;;;;;;10.38;6.22;;;21.00;99.90;;;;;;4811427;29;20045;-86
2023/08/12 08:48:13;;;;;;;8.30;5.88;;;21.00;99.90;;;;;;4827651;29;20461;-89
2023/08/12 08:50:40;;;;;;;7.18;6.30;;;21.10;99.90;;;;;;4812211;29;20046;-86
2023/08/12 08:53:06;;;;;;;8.50;6.30;;;21.10;99.90;;;;;;4797123;29;20076;-91
2023/08/12 08:55:32;;;;;;;10.98;6.72;;;21.00;99.90;;;;;;4825024;29;20049;-91
2023/08/12 08:57:58;;;;;;;7.25;6.10;;;21.00;99.90;;;;;;4819002;29;20033;-84
2023/08/12 09:00:25;;;;;;;8.95;6.50;;;21.00;99.90;;;;;;4816436;29;20077;-85
2023/08/12 09:02:51;;;;;;;;;;;21.00;99.90;;;;;;4830593;29;20046;-86
2023/08/12 09:05:17;;;;;;;8.88;6.63;;;21.00;99.90;;;;;;4803964;29;19920;-84
2023/08/12 09:07:44;;;;;;;8.23;6.30;;;21.00;99.90;;;;;;4807027;29;20053;-87
2023/08/12 09:10:11;;;;;;;7.70;6.30;;;21.00;99.90;;;;;;4831480;29;20101;-92
2023/08/12 09:12:37;;;;;;;9.27;6.13;;;20.90;99.90;;;;;;4830805;29;20037;-90
2023/08/12 09:15:07;;;;;;;7.73;6.77;;;20.90;99.90;;;;;;4810437;29;20532;-86
2023/08/12 09:17:33;;;;;;;9.30;7.72;;;20.90;99.90;;;;;;4832244;29;20080;-90
2023/08/12 09:19:59;;;;;;;10.13;7.45;;;20.80;99.90;;;;;;4846871;29;20045;-92
2023/08/12 09:22:27;;;;;;;9.53;7.60;;;20.80;99.90;;;;;;4831702;29;20053;-92
2023/08/12 09:24:59;;;;;;;11.52;7.93;;;20.80;99.90;;;;;;4814839;29;20046;-88
2023/08/12 09:27:25;;;;;;;10.80;8.70;;;20.70;99.90;;;;;;4829240;29;20089;-86
2023/08/12 09:29:59;;;;;;;14.13;9.23;;;20.70;99.90;;;;;;4842789;29;20053;-86
2023/08/12 09:32:25;;;;;;;11.93;9.02;;;20.70;99.90;;;;;;4819284;29;20121;-85
2023/08/12 09:34:53;;;;;;;12.55;9.77;;;20.70;99.90;;;;;;4829864;29;20125;-82
2023/08/12 09:37:20;;;;;;;10.57;8.38;;;20.70;99.90;;;;;;4829302;29;20108;-84
2023/08/12 09:39:48;;;;;;;13.30;9.65;;;20.70;99.90;;;;;;4829425;29;20057;-83
2023/08/12 09:42:14;;;;;;;10.80;8.82;;;20.70;99.90;;;;;;4819921;29;20127;-85
2023/08/12 09:44:42;;;;;;;9.73;8.57;;;20.70;99.90;;;;;;4830003;29;20055;-87
2023/08/12 09:47:08;;;;;;;11.20;9.50;;;20.70;99.90;;;;;;4826390;29;20474;-86
2023/08/12 09:49:35;;;;;;;12.20;10.65;;;20.70;99.90;;;;;;4847109;29;20051;-87
2023/08/12 09:52:02;;;;;;;12.55;9.27;;;20.70;99.90;;;;;;4832572;29;20620;-87
2023/08/12 09:54:31;;;;;;;10.35;9.13;;;20.70;99.90;;;;;;4821259;29;20038;-87
2023/08/12 09:57:00;;;;;;;12.90;10.10;;;20.70;99.90;;;;;;4834330;29;20344;-87
2023/08/12 09:59:35;;;;;;;11.35;9.63;;;20.70;99.90;;;;;;4829351;29;20064;-88
2023/08/12 10:02:07;;;;;;;10.85;9.63;;;20.80;99.90;;;;;;4829206;29;20084;-88
2023/08/12 10:04:56;;;;;;;13.13;9.65;;;20.80;99.90;;;;;;4837719;29;20049;-89
2023/08/12 10:07:23;;;;;;;9.85;8.82;;;20.80;99.90;;;;;;4829690;29;20045;-89
2023/08/12 10:09:49;;;;;;;;;;;20.70;99.90;;;;;;4809453;29;20049;-90
2023/08/12 10:12:15;;;;;;;10.60;9.23;;;20.80;99.90;;;;;;4835879;29;19971;-88
2023/08/12 10:14:41;;;;;;;12.23;9.07;;;20.80;99.90;;;;;;4834230;29;20102;-88
2023/08/12 10:17:09;;;;;;;10.95;9.27;;;20.80;99.90;;;;;;4838406;29;20072;-87
2023/08/12 10:19:36;;;;;;;10.60;9.45;;;20.80;99.90;;;;;;4835342;29;20077;-88
2023/08/12 10:22:03;;;;;;;10.60;9.50;;;20.80;99.90;;;;;;4831036;29;20550;-88
2023/08/12 10:24:29;;;;;;;10.95;9.65;;;20.80;99.90;;;;;;4829891;29;20049;-86
2023/08/12 10:26:55;;;;;;;10.63;9.52;;;20.80;99.90;;;;;;4814502;29;20494;-88
2023/08/12 10:29:24;;;;;;;13.80;9.40;;;20.90;99.90;;;;;;4844701;29;20065;-87
2023/08/12 10:31:50;;;;;;;10.68;9.27;;;20.80;99.90;;;;;;4835120;29;20133;-87
2023/08/12 10:34:25;;;;;;;13.25;9.70;;;20.90;99.90;;;;;;4830215;29;20033;-88
2023/08/12 10:37:00;;;;;;;12.48;11.18;;;20.90;99.90;;;;;;4845740;29;20664;-86
2023/08/12 10:39:28;;;;;;;11.38;9.80;;;20.90;99.90;;;;;;4816958;29;20053;-87
2023/08/12 10:41:57;;;;;;;13.85;9.88;;;21.00;99.90;;;;;;4828670;29;20050;-86
2023/08/12 10:44:43;;;;;;;9.82;8.35;;;20.70;99.90;;;;;;4828753;29;20136;-90
2023/08/12 10:47:10;;;;;;;8.23;7.43;;;20.70;99.90;;;;;;4830532;29;20456;-90
2023/08/12 10:49:44;;;;;;;8.32;7.53;;;20.80;99.90;;;;;;4827431;29;20046;-90
2023/08/12 10:52:30;;;;;;;8.95;7.13;;;20.80;99.90;;;;;;4830440;29;20132;-92
2023/08/12 10:55:22;;;;;;;7.88;7.07;;;20.80;99.90;;;;;;4842179;29;20053;-90
2023/08/12 10:57:53;;;;;;;7.43;6.60;;;20.90;99.90;;;;;;4837444;29;20089;-89
2023/08/12 11:00:22;;;;;;;6.07;5.47;;;21.10;99.90;;;;;;4822753;29;20048;-91
2023/08/12 11:02:58;;;;;;;6.85;5.15;;;20.90;99.90;;;;;;4843924;29;20048;-89
2023/08/12 11:05:35;;;;;;;3.20;2.45;;;21.00;99.90;;;;;;4814343;29;20065;-87
2023/08/12 11:08:03;;;;;;;3.38;2.03;;;20.90;99.90;;;;;;4825699;29;20056;-88
2023/08/12 11:10:34;;;;;;;3.80;2.05;;;20.80;99.90;;;;;;4801995;29;20037;-89
2023/08/12 11:13:00;;;;;;;6.35;2.60;;;20.80;99.90;;;;;;4826547;29;20069;-88
2023/08/12 11:15:31;;;;;;;10.13;2.30;;;20.60;99.90;;;;;;4832257;29;20045;-87
2023/08/12 11:17:57;;;;;;;11.27;2.15;;;20.30;99.90;;;;;;4834400;29;20401;-87
2023/08/12 11:20:24;;;;;;;4.28;2.20;;;20.20;99.90;;;;;;4798096;29;20049;-83
2023/08/12 11:22:50;;;;;;;15.55;3.47;;;20.30;99.90;;;;;;4829531;29;20052;-87
2023/08/12 11:25:16;;;;;;;4.32;2.22;;;20.30;99.90;;;;;;4842053;29;20045;-85
2023/08/12 11:27:44;;;;;;;4.35;2.53;;;20.10;99.90;;;;;;4826127;29;20042;-85
2023/08/12 11:30:17;;;;;;;4.70;1.70;;;20.20;99.90;;;;;;4828396;29;20038;-84
2023/08/12 11:32:45;;;;;;;3.08;2.10;;;20.00;99.90;;;;;;4841260;29;20046;-89
2023/08/12 11:35:12;;;;;;;3.55;2.20;;;20.00;99.90;;;;;;4820364;29;20041;-92
2023/08/12 11:37:40;;;;;;;3.90;2.03;;;20.00;99.90;;;;;;4845328;29;20041;-86
2023/08/12 11:40:11;;;;;;;2.28;1.65;;;20.20;99.90;;;;;;4827534;29;20073;-87
2023/08/12 11:42:38;;;;;;;2.38;1.70;;;20.20;99.90;;;;;;4842191;29;20057;-89
2023/08/12 11:45:06;;;;;;;2.30;1.60;;;20.10;99.90;;;;;;4826116;29;20056;-92
2023/08/12 11:47:33;;;;;;;2.08;1.60;;;20.30;99.90;;;;;;4833875;29;20053;-90
2023/08/12 11:50:01;;;;;;;2.55;1.92;;;20.40;99.90;;;;;;4828397;29;20056;-88
2023/08/12 11:52:27;;;;;;;2.53;1.80;;;20.30;99.90;;;;;;4843435;29;20049;-91
2023/08/12 11:54:53;;;;;;;2.83;1.70;;;20.50;99.90;;;;;;4826778;29;20057;-87
2023/08/12 11:57:21;;;;;;;2.88;1.70;;;20.30;99.90;;;;;;4817447;29;20102;-87
2023/08/12 11:59:47;;;;;;;2.28;1.35;;;20.40;99.90;;;;;;4843010;29;20125;-88
2023/08/12 12:02:13;;;;;;;3.83;1.30;;;20.40;99.90;;;;;;4842465;29;20450;-86
2023/08/12 12:04:42;;;;;;;2.53;1.40;;;20.40;99.90;;;;;;4809433;29;20537;-88
2023/08/12 12:07:18;;;;;;;2.97;1.10;;;20.70;99.90;;;;;;4832432;29;20552;-87
2023/08/12 12:09:44;;;;;;;1.38;1.10;;;20.60;99.90;;;;;;4827062;29;20124;-89
2023/08/12 12:12:10;;;;;;;2.38;1.00;;;20.40;99.90;;;;;;4810128;29;20148;-86
2023/08/12 12:14:36;;;;;;;1.63;0.70;;;20.60;99.90;;;;;;4794833;29;20045;-86
2023/08/12 12:17:08;;;;;;;3.35;0.90;;;20.50;99.90;;;;;;4839565;29;20125;-84
2023/08/12 12:19:34;;;;;;;3.08;1.20;;;19.80;99.90;;;;;;4842709;29;20037;-87
2023/08/12 12:22:03;;;;;;;2.13;1.08;;;19.50;99.90;;;;;;4826473;29;20382;-85
2023/08/12 12:24:30;;;;;;;1.95;1.00;;;19.30;99.90;;;;;;4810770;29;20045;-83
2023/08/12 12:26:56;;;;;;;2.88;1.15;;;19.00;99.90;;;;;;4818182;29;20046;-86
2023/08/12 12:29:22;;;;;;;2.83;1.20;;;18.50;99.90;;;;;;4827798;29;20044;-87
2023/08/12 12:31:48;;;;;;;3.38;1.42;;;18.30;99.90;;;;;;4832786;29;20045;-89
2023/08/12 12:34:14;;;;;;;3.97;1.20;;;18.10;99.90;;;;;;4831554;29;20097;-89
2023/08/12 12:36:40;;;;;;;2.78;1.33;;;18.20;99.90;;;;;;4816252;29;20048;-90
2023/08/12 12:39:10;;;;;;;4.03;1.60;;;18.00;99.90;;;;;;4816421;29;20137;-88
2023/08/12 12:41:36;;;;;;;2.83;1.40;;;18.10;99.90;;;;;;4831743;29;20057;-88
2023/08/12 12:44:02;;;;;;;3.47;1.58;;;18.00;99.90;;;;;;4829119;29;20141;-89
2023/08/12 12:46:28;;;;;;;3.33;1.55;;;18.00;99.90;;;;;;4841120;29;20545;-88
2023/08/12 12:48:54;;;;;;;1.73;1.27;;;18.30;99.90;;;;;;4803011;29;20056;-90
2023/08/12 12:51:20;;;;;;;3.60;1.60;;;18.40;99.90;;;;;;4821511;29;20486;-90
2023/08/12 12:53:46;;;;;;;2.95;1.67;;;18.30;99.90;;;;;;4800208;29;20121;-91
2023/08/12 12:56:11;;;;;;;2.55;1.75;;;18.30;99.90;;;;;;4799299;29;20529;-85
2023/08/12 12:58:37;;;;;;;4.25;1.38;;;18.50;99.90;;;;;;4817773;29;20040;-89
2023/08/12 13:01:04;;;;;;;2.20;1.15;;;18.30;99.90;;;;;;4814198;29;20105;-90
2023/08/12 13:03:33;;;;;;;4.10;1.00;;;18.20;99.90;;;;;;4808484;29;20051;-94
2023/08/12 13:05:59;;;;;;;4.45;1.20;;;18.40;99.90;;;;;;4803136;29;20069;-83
2023/08/12 13:08:25;;;;;;;4.65;1.58;;;18.40;99.90;;;;;;4842271;29;20045;-86
2023/08/12 13:10:51;;;;;;;5.95;1.40;;;18.30;99.90;;;;;;4831883;29;20136;-88
2023/08/12 13:13:17;;;;;;;5.43;1.65;;;18.40;99.90;;;;;;4835640;29;20049;-92
2023/08/12 13:15:44;;;;;;;3.90;1.38;;;18.60;99.90;;;;;;4815632;29;20038;-88
2023/08/12 13:18:10;;;;;;;8.20;1.73;;;18.70;99.90;;;;;;4830035;29;20662;-83
2023/08/12 13:20:36;;;;;;;4.30;1.70;;;18.70;99.90;;;;;;4846885;29;20132;-86
2023/08/12 13:23:02;;;;;;;5.15;1.55;;;18.80;99.90;;;;;;4830200;29;20045;-87
2023/08/12 13:25:35;;;;;;;5.18;1.27;;;19.20;99.90;;;;;;4846229;29;20146;-89
2023/08/12 13:28:02;;;;;;;4.82;1.67;;;19.10;99.90;;;;;;4816093;29;20061;-88
2023/08/12 13:30:28;;;;;;;4.47;1.23;;;19.20;99.90;;;;;;4832491;29;20097;-90